Time;durP1;ratioP1;P1;durP2;ratioP2;P2;SDS_P1;SDS_P2;PMS_P1;PMS_P2;Temp;Humidity;BMP_temperature;BMP_pressure;BME280_temperature;BME280_humidity;BME280_pressure;Samples;Min_cycle;Max_cycle;Signal;HPM_P1;HPM_P2
2021/09/14 00:01:55;;;;;;;2.95;1.65;;;20.10;59.90;;;;;;2351511;52;20961;-71
2021/09/14 00:04:22;;;;;;;3.80;1.65;;;20.10;59.90;;;;;;2332903;53;20961;-72
2021/09/14 00:06:48;;;;;;;3.05;1.80;;;20.10;59.90;;;;;;2351908;53;20914;-73
2021/09/14 00:09:14;;;;;;;2.65;1.48;;;20.00;59.80;;;;;;2355632;52;20986;-71
2021/09/14 00:11:40;;;;;;;3.95;1.75;;;20.00;59.80;;;;;;2356505;52;20950;-73
2021/09/14 00:14:07;;;;;;;3.05;1.70;;;20.00;59.80;;;;;;2351637;53;21013;-73
2021/09/14 00:16:33;;;;;;;3.05;1.77;;;20.00;59.80;;;;;;2356820;52;21020;-72
2021/09/14 00:18:59;;;;;;;2.83;1.40;;;19.90;59.80;;;;;;2351140;53;20950;-71
2021/09/14 00:21:26;;;;;;;2.85;1.50;;;19.90;59.90;;;;;;2356177;52;20966;-71
2021/09/14 00:23:52;;;;;;;2.80;1.35;;;19.90;59.90;;;;;;2340340;53;20989;-75
2021/09/14 00:26:18;;;;;;;2.65;1.40;;;19.90;59.90;;;;;;2350552;52;20942;-73
2021/09/14 00:28:44;;;;;;;2.70;1.45;;;19.90;59.90;;;;;;2355874;52;20994;-71
2021/09/14 00:31:11;;;;;;;3.08;1.62;;;19.80;59.90;;;;;;2355783;52;20979;-72
2021/09/14 00:33:37;;;;;;;3.25;1.90;;;19.80;59.90;;;;;;2350647;53;20926;-71
2021/09/14 00:36:03;;;;;;;2.85;1.70;;;19.80;60.00;;;;;;2358743;53;21153;-71
2021/09/14 00:38:30;;;;;;;3.53;1.60;;;19.80;60.10;;;;;;2338959;53;20996;-71
2021/09/14 00:40:56;;;;;;;3.72;1.95;;;19.70;60.10;;;;;;2355605;52;20983;-71
2021/09/14 00:43:22;;;;;;;2.83;1.50;;;19.70;60.10;;;;;;2351099;53;21005;-72
2021/09/14 00:45:49;;;;;;;2.72;1.62;;;19.60;60.00;;;;;;2364351;52;21046;-71
2021/09/14 00:48:15;;;;;;;2.55;1.42;;;19.70;60.00;;;;;;2331072;53;20946;-71
2021/09/14 00:50:42;;;;;;;3.33;1.55;;;19.60;60.00;;;;;;2354127;52;20990;-73
2021/09/14 00:53:08;;;;;;;2.65;1.48;;;19.60;60.10;;;;;;2350775;53;21481;-75
2021/09/14 00:55:36;;;;;;;3.03;1.70;;;19.60;60.10;;;;;;2351723;53;20966;-70
2021/09/14 00:58:02;;;;;;;4.05;1.67;;;19.60;60.20;;;;;;2331840;53;22020;-72
2021/09/14 01:00:28;;;;;;;3.83;1.50;;;19.50;60.10;;;;;;2410876;52;21937;-72
2021/09/14 01:02:55;;;;;;;3.58;1.58;;;19.50;60.10;;;;;;2334127;53;20965;-72
2021/09/14 01:05:21;;;;;;;2.78;1.33;;;19.50;60.20;;;;;;2346943;53;21261;-72
2021/09/14 01:07:47;;;;;;;2.60;1.37;;;19.50;60.20;;;;;;2358712;52;21034;-71
2021/09/14 01:10:13;;;;;;;3.33;1.90;;;19.50;60.30;;;;;;2339316;53;20938;-72
2021/09/14 01:12:40;;;;;;;2.78;1.40;;;19.50;60.30;;;;;;2351275;53;21505;-71
2021/09/14 01:15:06;;;;;;;2.78;1.48;;;19.40;60.20;;;;;;2352306;53;21631;-74
2021/09/14 01:17:33;;;;;;;2.42;1.33;;;19.40;60.20;;;;;;2356300;52;21031;-72
2021/09/14 01:19:59;;;;;;;2.47;1.37;;;19.40;60.20;;;;;;2457168;52;20929;-71
2021/09/14 01:22:32;;;;;;;2.58;1.45;;;19.40;60.20;;;;;;2471037;52;21985;-75
2021/09/14 01:24:58;;;;;;;4.25;1.83;;;19.40;60.40;;;;;;2350411;52;20922;-72
2021/09/14 01:27:25;;;;;;;3.00;1.65;;;19.30;60.20;;;;;;2350776;53;21001;-71
2021/09/14 01:32:36;;;;;;;3.17;2.05;;;19.20;60.30;;;;;;2353830;52;20993;-71
2021/09/14 01:35:07;;;;;;;3.62;1.98;;;19.20;60.40;;;;;;2351422;53;21423;-72
2021/09/14 01:37:34;;;;;;;4.47;1.90;;;19.20;60.80;;;;;;2350572;52;21348;-72
2021/09/14 01:40:00;;;;;;;4.43;1.83;;;19.20;60.70;;;;;;2601006;52;21558;-75
2021/09/14 01:42:26;;;;;;;4.18;1.70;;;19.20;60.70;;;;;;2421852;52;22025;-71
2021/09/14 01:44:53;;;;;;;2.75;1.45;;;19.20;60.70;;;;;;2346450;53;21004;-72
2021/09/14 01:47:19;;;;;;;2.90;1.60;;;19.20;60.70;;;;;;2346859;52;20938;-73
2021/09/14 01:49:45;;;;;;;3.08;1.50;;;19.10;60.60;;;;;;2350058;53;21117;-71
2021/09/14 01:52:11;;;;;;;3.10;1.50;;;19.10;60.60;;;;;;2350142;53;20958;-72
2021/09/14 01:54:38;;;;;;;3.70;1.48;;;19.10;60.60;;;;;;2360108;52;20950;-71
2021/09/14 01:57:05;;;;;;;3.00;1.67;;;19.10;60.60;;;;;;2593350;52;20953;-73
2021/09/14 01:59:32;;;;;;;2.90;1.60;;;19.10;60.70;;;;;;2366126;52;21992;-72
2021/09/14 02:02:33;;;;;;;3.20;1.83;;;19.10;60.70;;;;;;2355906;52;20978;-70
2021/09/14 02:05:41;;;;;;;2.80;1.73;;;19.00;60.60;;;;;;2350590;53;21478;-71
2021/09/14 02:08:29;;;;;;;2.95;1.67;;;19.10;60.70;;;;;;2355377;52;21946;-72
2021/09/14 02:40:36;;;;;;;5.05;1.98;;;18.80;60.50;;;;;;2336471;53;20989;-72
2021/09/14 02:43:20;;;;;;;4.80;1.90;;;18.80;60.60;;;;;;2601215;52;21017;-72
2021/09/14 02:58:38;;;;;;;3.25;1.83;;;18.60;60.90;;;;;;2349146;53;21939;-71
2021/09/14 03:01:09;;;;;;;3.58;1.58;;;18.60;60.90;;;;;;2351058;52;20981;-74
2021/09/14 03:03:36;;;;;;;2.65;1.40;;;18.60;60.70;;;;;;2351053;52;20945;-72
2021/09/14 03:06:02;;;;;;;2.47;1.30;;;18.60;60.80;;;;;;2355348;53;20978;-71
2021/09/14 03:08:29;;;;;;;2.67;1.50;;;18.60;61.00;;;;;;2351194;53;20929;-72
2021/09/14 03:10:55;;;;;;;3.37;2.05;;;18.60;61.00;;;;;;2351499;53;20937;-71
2021/09/14 03:13:21;;;;;;;2.75;1.40;;;18.60;61.00;;;;;;2351389;53;20937;-70
2021/09/14 03:15:47;;;;;;;4.53;1.65;;;18.60;61.10;;;;;;2356665;52;20931;-73
2021/09/14 03:18:14;;;;;;;3.03;1.70;;;18.50;61.00;;;;;;2348072;53;22095;-71
2021/09/14 03:20:40;;;;;;;3.72;1.95;;;18.60;61.10;;;;;;2342270;52;21947;-71
2021/09/14 03:23:06;;;;;;;3.90;2.03;;;18.50;61.10;;;;;;2359554;53;20955;-70
2021/09/14 03:25:32;;;;;;;3.30;1.70;;;18.50;61.10;;;;;;2336888;53;20961;-74
2021/09/14 03:27:59;;;;;;;3.60;1.87;;;18.50;61.10;;;;;;2348280;52;21904;-71
2021/09/14 03:30:25;;;;;;;3.08;1.55;;;18.50;61.10;;;;;;2355412;52;21543;-73
2021/09/14 03:32:51;;;;;;;4.22;1.70;;;18.50;61.10;;;;;;2351826;53;20914;-73
2021/09/14 03:35:17;;;;;;;4.78;1.70;;;18.50;61.10;;;;;;2350742;52;21012;-71
2021/09/14 03:37:44;;;;;;;4.37;1.87;;;18.50;61.10;;;;;;2601958;52;20973;-72
2021/09/14 03:40:10;;;;;;;3.00;1.87;;;18.40;61.10;;;;;;2354635;52;20974;-73
2021/09/14 03:42:37;;;;;;;3.35;1.73;;;18.40;61.10;;;;;;2350524;53;21333;-71
2021/09/14 03:45:03;;;;;;;2.97;1.58;;;18.40;61.20;;;;;;2350749;52;20946;-75
2021/09/14 03:47:30;;;;;;;2.87;1.75;;;18.40;61.20;;;;;;2445731;52;20938;-72
2021/09/14 03:49:56;;;;;;;2.90;1.62;;;18.40;61.20;;;;;;2400565;52;21017;-72
2021/09/14 03:52:22;;;;;;;2.85;1.50;;;18.30;61.10;;;;;;2355616;52;20929;-69
2021/09/14 03:54:50;;;;;;;4.05;1.83;;;18.30;61.10;;;;;;2351683;53;20997;-71
2021/09/14 03:57:16;;;;;;;3.20;1.83;;;18.30;61.20;;;;;;2351891;53;20997;-72
2021/09/14 03:59:42;;;;;;;2.87;1.60;;;18.30;61.30;;;;;;2351319;53;21040;-71
2021/09/14 04:02:24;;;;;;;3.37;1.90;;;18.30;61.30;;;;;;2352256;53;21485;-71
2021/09/14 04:05:47;;;;;;;3.58;1.77;;;18.30;61.40;;;;;;2364705;52;20986;-71
2021/09/14 04:08:50;;;;;;;3.15;1.58;;;18.30;61.40;;;;;;2602537;52;21008;-71
2021/09/14 04:11:16;;;;;;;4.07;2.28;;;18.30;61.30;;;;;;2576339;52;20947;-73
2021/09/14 04:13:43;;;;;;;2.78;1.40;;;18.30;61.30;;;;;;2593159;52;20930;-72
2021/09/14 04:16:09;;;;;;;2.80;1.33;;;18.30;61.30;;;;;;2433503;52;21005;-71
2021/09/14 04:18:35;;;;;;;3.22;1.40;;;18.20;61.20;;;;;;2351912;53;21053;-70
2021/09/14 04:21:01;;;;;;;4.22;1.87;;;18.30;61.40;;;;;;2351255;53;20941;-71
2021/09/14 04:23:28;;;;;;;3.25;1.90;;;18.30;61.40;;;;;;2336233;53;20947;-70
2021/09/14 04:25:54;;;;;;;3.10;1.75;;;18.20;61.40;;;;;;2359428;53;21094;-70
2021/09/14 04:28:20;;;;;;;4.03;2.05;;;18.20;61.50;;;;;;2339012;53;20953;-69
2021/09/14 04:30:47;;;;;;;2.83;1.80;;;18.20;61.50;;;;;;2358534;52;21464;-70
2021/09/14 04:33:13;;;;;;;3.17;1.80;;;18.20;61.40;;;;;;2330829;53;20930;-73
2021/09/14 04:35:39;;;;;;;3.45;1.92;;;18.20;61.50;;;;;;2356545;52;21034;-74
2021/09/14 04:38:06;;;;;;;4.40;2.20;;;18.20;61.50;;;;;;2352314;53;21013;-72
2021/09/14 04:40:32;;;;;;;3.80;1.95;;;18.20;61.50;;;;;;2352403;52;21474;-73
2021/09/14 04:42:58;;;;;;;3.40;2.03;;;18.20;61.50;;;;;;2355298;52;21520;-71
2021/09/14 04:45:25;;;;;;;2.92;1.87;;;18.20;61.50;;;;;;2516374;52;21332;-71
2021/09/14 04:47:51;;;;;;;3.37;2.00;;;18.20;61.50;;;;;;2582679;52;20965;-71
2021/09/14 04:50:17;;;;;;;3.45;2.00;;;18.20;61.60;;;;;;2351226;52;21009;-72
2021/09/14 04:52:44;;;;;;;3.80;2.00;;;18.10;61.50;;;;;;2351217;53;21000;-71
2021/09/14 04:55:10;;;;;;;3.80;1.77;;;18.10;61.50;;;;;;2360325;52;20955;-75
2021/09/14 04:57:36;;;;;;;3.03;1.77;;;18.10;61.60;;;;;;2345291;53;20945;-71
2021/09/14 05:00:04;;;;;;;2.67;1.60;;;18.10;61.60;;;;;;2355932;52;21014;-72
2021/09/14 05:02:30;;;;;;;2.80;1.62;;;18.10;61.70;;;;;;2364487;52;20977;-70
2021/09/14 05:05:02;;;;;;;3.47;1.95;;;18.10;61.70;;;;;;2335187;53;20973;-74
2021/09/14 05:07:28;;;;;;;2.90;1.60;;;18.10;61.90;;;;;;2364258;52;20969;-73
2021/09/14 05:09:54;;;;;;;3.15;1.85;;;18.10;61.90;;;;;;2368305;52;22057;-71
2021/09/14 05:12:20;;;;;;;4.80;1.80;;;18.10;61.90;;;;;;2351569;53;22064;-70
2021/09/14 05:14:47;;;;;;;3.83;1.90;;;18.10;61.90;;;;;;2350328;52;21030;-72
2021/09/14 05:17:13;;;;;;;3.05;1.90;;;18.10;61.80;;;;;;2360288;52;20971;-72
2021/09/14 05:19:41;;;;;;;3.92;1.80;;;18.10;61.80;;;;;;2349126;52;20978;-71
2021/09/14 05:22:08;;;;;;;3.10;1.52;;;18.10;61.80;;;;;;2350538;53;22091;-72
2021/09/14 05:24:34;;;;;;;3.15;1.60;;;18.10;62.00;;;;;;2351703;53;20957;-72
2021/09/14 05:27:00;;;;;;;2.80;1.60;;;18.10;62.00;;;;;;2355751;52;20935;-70
2021/09/14 05:29:26;;;;;;;2.60;1.50;;;18.00;62.00;;;;;;2355838;52;20976;-73
2021/09/14 05:31:53;;;;;;;2.75;1.55;;;18.10;62.30;;;;;;2351687;53;20978;-72
2021/09/14 05:34:20;;;;;;;3.10;1.80;;;18.10;62.50;;;;;;2356238;52;20982;-72
2021/09/14 05:36:47;;;;;;;2.72;1.40;;;18.10;62.80;;;;;;2347586;53;21320;-72
2021/09/14 05:39:13;;;;;;;3.40;1.73;;;18.10;62.80;;;;;;2347183;52;21620;-72
2021/09/14 05:41:40;;;;;;;3.50;1.90;;;18.10;62.90;;;;;;2356209;52;20903;-73
2021/09/14 05:44:06;;;;;;;3.40;1.70;;;18.10;62.90;;;;;;2350964;53;21009;-72
2021/09/14 05:46:32;;;;;;;3.72;1.70;;;18.20;63.00;;;;;;2354126;52;20930;-71
2021/09/14 05:48:58;;;;;;;5.30;2.08;;;18.20;63.00;;;;;;2601241;52;20938;-72
2021/09/14 05:51:25;;;;;;;3.15;2.20;;;18.20;62.90;;;;;;2411254;52;21022;-73
2021/09/14 05:53:51;;;;;;;3.28;1.98;;;18.30;63.10;;;;;;2345483;53;20996;-72
2021/09/14 05:56:17;;;;;;;3.42;1.98;;;18.30;63.10;;;;;;2347075;53;21064;-71
2021/09/14 05:58:44;;;;;;;3.33;1.73;;;18.30;63.00;;;;;;2341485;52;20941;-72
2021/09/14 06:01:10;;;;;;;3.00;1.60;;;18.30;63.10;;;;;;2420991;52;21100;-77
2021/09/14 06:03:36;;;;;;;3.50;1.95;;;18.40;63.10;;;;;;2352444;52;20946;-72
2021/09/14 06:06:03;;;;;;;3.45;1.90;;;18.30;63.00;;;;;;2602991;52;20986;-73
2021/09/14 06:08:29;;;;;;;3.33;1.90;;;18.40;63.10;;;;;;2344789;53;20978;-71
2021/09/14 06:10:55;;;;;;;3.95;1.75;;;18.40;63.00;;;;;;2353697;53;20998;-72
2021/09/14 06:13:23;;;;;;;3.97;1.80;;;18.40;63.00;;;;;;2356067;52;20959;-70
2021/09/14 06:15:49;;;;;;;4.53;1.90;;;18.40;63.10;;;;;;2350625;53;22038;-70
2021/09/14 06:18:16;;;;;;;4.18;1.90;;;18.50;63.30;;;;;;2495221;52;22064;-72
2021/09/14 06:20:42;;;;;;;3.40;1.80;;;18.50;63.30;;;;;;2338942;53;21337;-72
2021/09/14 06:23:08;;;;;;;3.37;2.10;;;18.50;63.40;;;;;;2351327;53;20926;-71
2021/09/14 06:25:37;;;;;;;3.15;1.92;;;18.50;63.40;;;;;;2352321;52;21005;-72
2021/09/14 06:28:04;;;;;;;3.10;2.10;;;18.50;63.50;;;;;;2351191;52;21024;-72
2021/09/14 06:30:32;;;;;;;3.42;2.00;;;18.60;63.70;;;;;;2361782;52;22104;-74
2021/09/14 06:32:58;;;;;;;2.95;1.80;;;18.60;63.90;;;;;;2334088;53;21056;-71
2021/09/14 06:35:24;;;;;;;3.40;1.60;;;18.70;64.40;;;;;;2358172;52;20931;-72
2021/09/14 06:37:50;;;;;;;3.92;2.30;;;18.80;64.80;;;;;;2347398;52;21002;-72
2021/09/14 06:40:17;;;;;;;4.03;1.80;;;18.90;65.00;;;;;;2592466;52;20946;-72
2021/09/14 06:42:44;;;;;;;3.30;2.05;;;19.00;65.10;;;;;;2355426;52;21650;-71
2021/09/14 06:45:10;;;;;;;3.17;1.90;;;19.10;65.20;;;;;;2351171;53;20969;-73
2021/09/14 06:47:36;;;;;;;4.35;2.60;;;19.20;65.20;;;;;;2351387;53;21108;-74
2021/09/14 06:50:04;;;;;;;3.65;2.28;;;19.30;65.30;;;;;;2351382;53;20989;-73
2021/09/14 06:52:38;;;;;;;4.85;2.90;;;19.40;65.30;;;;;;2352137;53;22120;-73
2021/09/14 06:55:05;;;;;;;3.90;2.40;;;19.40;65.20;;;;;;2351380;53;21525;-73
2021/09/14 06:57:32;;;;;;;3.50;2.05;;;19.50;65.30;;;;;;2350915;52;20961;-73
2021/09/14 06:59:58;;;;;;;3.87;2.40;;;19.60;65.30;;;;;;2428164;52;21299;-73
2021/09/14 07:02:25;;;;;;;2.95;1.87;;;19.70;65.40;;;;;;2420961;52;22002;-73
2021/09/14 07:04:53;;;;;;;3.83;2.37;;;19.80;65.50;;;;;;2329001;53;22031;-72
2021/09/14 07:07:20;;;;;;;4.12;2.35;;;19.90;65.60;;;;;;2351298;52;20973;-73
2021/09/14 07:09:46;;;;;;;3.58;2.28;;;19.90;65.60;;;;;;2350909;53;21060;-73
2021/09/14 07:12:12;;;;;;;4.05;2.53;;;20.00;65.70;;;;;;2358595;52;20987;-73
2021/09/14 07:14:38;;;;;;;3.87;2.17;;;20.10;65.80;;;;;;2328847;53;20993;-71
2021/09/14 07:17:05;;;;;;;3.30;2.20;;;20.30;66.00;;;;;;2355220;52;20998;-72
2021/09/14 07:19:31;;;;;;;3.83;2.37;;;20.30;65.90;;;;;;2343912;53;21076;-72
2021/09/14 07:21:58;;;;;;;3.95;2.30;;;20.50;66.00;;;;;;2381560;52;20929;-72
2021/09/14 07:24:24;;;;;;;4.03;2.40;;;20.60;66.00;;;;;;2343309;53;20930;-73
2021/09/14 07:26:50;;;;;;;3.30;1.92;;;20.60;65.90;;;;;;2358772;53;20982;-73
2021/09/14 07:29:17;;;;;;;3.58;2.05;;;20.80;65.90;;;;;;2338198;53;20950;-73
2021/09/14 07:31:44;;;;;;;3.53;2.40;;;20.80;65.90;;;;;;2351840;52;21256;-73
2021/09/14 07:34:11;;;;;;;3.20;1.77;;;20.90;65.90;;;;;;2355259;53;21054;-75
2021/09/14 07:36:37;;;;;;;4.00;2.42;;;21.00;65.90;;;;;;2356051;52;20946;-74
2021/09/14 07:39:04;;;;;;;3.78;2.50;;;21.10;65.90;;;;;;2350953;53;21100;-74
2021/09/14 07:41:30;;;;;;;4.00;2.70;;;21.30;65.80;;;;;;2352065;53;20992;-72
2021/09/14 07:43:56;;;;;;;6.90;2.60;;;21.30;65.60;;;;;;2355960;52;21845;-73
2021/09/14 07:46:22;;;;;;;3.72;2.40;;;21.40;65.50;;;;;;2355929;52;21304;-73
2021/09/14 07:48:49;;;;;;;3.03;1.77;;;21.50;65.40;;;;;;2351714;53;20985;-71
2021/09/14 07:51:15;;;;;;;5.75;2.30;;;21.60;65.40;;;;;;2355195;52;21415;-72
2021/09/14 07:53:41;;;;;;;3.87;2.40;;;21.70;65.50;;;;;;2350774;53;22195;-72
2021/09/14 07:56:07;;;;;;;4.03;2.00;;;21.80;65.40;;;;;;2332533;53;21918;-73
2021/09/14 07:58:34;;;;;;;4.70;2.50;;;21.90;65.50;;;;;;2600774;52;21029;-73
2021/09/14 08:01:00;;;;;;;3.42;2.05;;;22.00;65.50;;;;;;2459600;52;22176;-73
2021/09/14 08:03:27;;;;;;;5.68;2.45;;;22.00;65.40;;;;;;2350912;53;22078;-74
2021/09/14 08:05:56;;;;;;;4.28;2.80;;;22.10;65.40;;;;;;2350984;53;21009;-73
2021/09/14 08:08:22;;;;;;;4.97;2.50;;;22.20;65.40;;;;;;2355306;53;21002;-73
2021/09/14 08:10:51;;;;;;;4.15;2.50;;;22.30;65.40;;;;;;2356560;52;21044;-74
2021/09/14 08:13:18;;;;;;;3.53;2.25;;;22.40;65.40;;;;;;2348538;53;22120;-73
2021/09/14 08:15:44;;;;;;;3.60;2.22;;;22.50;65.40;;;;;;2348870;52;21045;-72
2021/09/14 08:18:10;;;;;;;4.43;2.28;;;22.50;65.30;;;;;;2451557;52;20953;-75
2021/09/14 08:20:37;;;;;;;3.65;2.42;;;22.60;65.20;;;;;;2345550;52;20929;-72
2021/09/14 08:23:03;;;;;;;3.78;2.60;;;22.70;65.20;;;;;;2399098;52;20942;-72
2021/09/14 08:25:29;;;;;;;4.05;2.75;;;22.80;65.20;;;;;;2353586;53;20946;-73
2021/09/14 08:31:23;;;;;;;5.05;2.83;;;23.00;64.90;;;;;;2355684;52;20974;-72
2021/09/14 08:33:49;;;;;;;4.78;2.67;;;23.10;64.90;;;;;;2355604;52;20946;-74
2021/09/14 08:36:16;;;;;;;5.45;3.12;;;23.20;64.90;;;;;;2350864;52;20961;-73
2021/09/14 08:38:44;;;;;;;4.87;3.03;;;23.30;64.80;;;;;;2356234;52;20923;-73
2021/09/14 08:41:13;;;;;;;4.43;2.85;;;23.40;64.80;;;;;;2490093;52;21556;-72
2021/09/14 08:43:42;;;;;;;4.00;2.58;;;23.50;64.90;;;;;;2355634;52;21053;-72
2021/09/14 08:46:08;;;;;;;4.90;3.05;;;23.60;64.90;;;;;;2365750;52;21340;-73
2021/09/14 08:48:37;;;;;;;4.35;2.95;;;23.70;64.80;;;;;;2351981;53;20990;-73
2021/09/14 08:51:04;;;;;;;3.92;2.67;;;23.80;64.60;;;;;;2469698;52;20985;-72
2021/09/14 08:53:31;;;;;;;3.92;2.30;;;23.90;64.70;;;;;;2346772;52;20998;-72
2021/09/14 08:55:58;;;;;;;5.70;3.12;;;23.90;64.60;;;;;;2336693;53;20989;-74
2021/09/14 08:58:25;;;;;;;3.90;2.58;;;24.10;64.60;;;;;;2351900;52;21028;-73
2021/09/14 09:00:51;;;;;;;4.80;2.70;;;24.10;64.50;;;;;;2351238;53;21005;-73
2021/09/14 09:03:27;;;;;;;5.87;3.08;;;24.20;64.50;;;;;;2601958;52;21051;-74
2021/09/14 09:05:54;;;;;;;4.90;3.17;;;24.40;64.50;;;;;;2351653;52;21056;-72
2021/09/14 09:08:22;;;;;;;4.32;3.03;;;24.40;64.30;;;;;;2354663;52;20963;-73
2021/09/14 09:11:08;;;;;;;4.70;2.92;;;24.50;64.00;;;;;;2420556;52;21274;-73
2021/09/14 09:14:36;;;;;;;4.07;2.67;;;24.60;63.90;;;;;;2351192;53;21061;-73
2021/09/14 09:17:07;;;;;;;5.22;3.10;;;24.80;64.00;;;;;;2351498;53;20934;-71
2021/09/14 09:19:34;;;;;;;4.22;2.72;;;24.80;64.10;;;;;;2351472;53;20954;-73
2021/09/14 09:22:02;;;;;;;6.03;2.97;;;25.00;64.20;;;;;;2352047;53;21315;-73
2021/09/14 09:24:28;;;;;;;4.97;3.00;;;25.00;64.20;;;;;;2351427;52;20950;-72
2021/09/14 09:26:55;;;;;;;6.10;3.97;;;25.20;64.30;;;;;;2545557;52;21414;-73
2021/09/14 09:29:22;;;;;;;6.37;3.97;;;25.30;64.00;;;;;;2332112;53;21092;-73
2021/09/14 09:31:49;;;;;;;5.47;3.55;;;25.40;63.80;;;;;;2355664;52;21972;-72
2021/09/14 09:34:16;;;;;;;5.60;4.12;;;25.50;63.50;;;;;;2467067;52;20930;-73
2021/09/14 09:36:43;;;;;;;6.20;3.90;;;25.70;62.90;;;;;;2414628;52;20973;-73
2021/09/14 09:39:11;;;;;;;7.12;3.40;;;25.70;62.10;;;;;;2343055;52;22124;-75
2021/09/14 09:41:40;;;;;;;5.30;3.42;;;25.80;62.00;;;;;;2351828;53;20966;-71
2021/09/14 09:44:11;;;;;;;6.07;3.08;;;25.80;61.70;;;;;;2358028;52;20935;-71
2021/09/14 09:46:38;;;;;;;4.13;2.70;;;25.80;61.60;;;;;;2352528;53;20981;-70
2021/09/14 09:49:08;;;;;;;4.12;2.83;;;25.90;61.90;;;;;;2351465;53;20993;-72
2021/09/14 09:51:35;;;;;;;4.18;2.97;;;25.90;61.80;;;;;;2352058;53;21015;-73
2021/09/14 09:54:02;;;;;;;5.72;3.33;;;26.00;61.90;;;;;;2495876;52;20992;-70
2021/09/14 09:56:30;;;;;;;4.20;2.65;;;26.10;61.80;;;;;;2355934;52;21002;-73
2021/09/14 09:58:57;;;;;;;4.95;3.22;;;26.10;61.40;;;;;;2336716;53;20925;-72
2021/09/14 10:01:25;;;;;;;5.15;3.10;;;26.20;61.10;;;;;;2338840;53;21000;-72
2021/09/14 10:04:16;;;;;;;5.80;3.35;;;26.30;60.80;;;;;;2352330;53;20989;-73
2021/09/14 10:06:52;;;;;;;4.18;2.70;;;26.30;60.10;;;;;;2351086;52;21017;-74
2021/09/14 10:09:20;;;;;;;4.37;3.25;;;26.30;60.10;;;;;;2351336;53;20910;-74
2021/09/14 10:11:55;;;;;;;5.55;2.85;;;26.30;59.90;;;;;;2351850;53;20993;-73
2021/09/14 10:14:22;;;;;;;4.18;2.87;;;26.40;59.90;;;;;;2351626;53;20945;-73
2021/09/14 10:16:49;;;;;;;5.28;3.30;;;26.30;60.10;;;;;;2351740;53;20986;-74
2021/09/14 10:19:17;;;;;;;3.90;2.78;;;26.40;60.40;;;;;;2351344;53;20948;-73
2021/09/14 10:25:21;;;;;;;5.65;3.08;;;26.40;60.40;;;;;;2355286;52;21014;-72
2021/09/14 10:27:47;;;;;;;3.62;2.53;;;26.70;60.30;;;;;;2351390;53;20965;-72
2021/09/14 10:30:14;;;;;;;4.25;2.75;;;26.70;60.30;;;;;;2351561;53;20941;-74
2021/09/14 10:32:44;;;;;;;5.45;2.87;;;26.80;60.00;;;;;;2351469;53;20977;-73
2021/09/14 10:35:11;;;;;;;7.03;2.72;;;26.80;60.00;;;;;;2356186;52;21006;-74
2021/09/14 10:37:38;;;;;;;3.75;2.20;;;26.90;59.90;;;;;;2383667;52;22134;-75
2021/09/14 10:40:14;;;;;;;3.85;2.62;;;27.00;59.90;;;;;;2441128;52;21112;-73
2021/09/14 10:42:44;;;;;;;7.72;2.78;;;27.10;59.50;;;;;;2356269;52;21018;-74
2021/09/14 10:45:16;;;;;;;4.07;2.25;;;27.10;59.50;;;;;;2349938;53;20922;-74
2021/09/14 10:47:48;;;;;;;4.35;2.70;;;27.20;59.50;;;;;;2350476;53;20945;-74
2021/09/14 10:50:24;;;;;;;3.83;2.05;;;27.30;59.40;;;;;;2351320;52;20945;-74
2021/09/14 10:52:56;;;;;;;3.75;2.17;;;27.30;59.40;;;;;;2353529;52;21098;-72
2021/09/14 10:55:22;;;;;;;3.50;1.87;;;27.40;59.40;;;;;;2332333;53;20997;-72
2021/09/14 10:57:50;;;;;;;3.20;2.00;;;27.40;59.20;;;;;;2421205;52;21417;-75
2021/09/14 11:00:18;;;;;;;4.30;2.45;;;27.50;59.10;;;;;;2355319;53;21037;-73
2021/09/14 11:02:54;;;;;;;3.45;2.37;;;27.50;58.90;;;;;;2533735;52;21120;-74
2021/09/14 11:05:25;;;;;;;4.53;2.47;;;27.60;58.50;;;;;;2351250;53;21387;-71
2021/09/14 11:08:00;;;;;;;5.87;2.90;;;27.60;58.80;;;;;;2351825;53;20985;-73
2021/09/14 11:10:35;;;;;;;3.70;2.60;;;27.70;58.60;;;;;;2350294;53;21527;-75
2021/09/14 11:13:02;;;;;;;6.12;2.67;;;27.80;58.80;;;;;;2355240;52;21014;-73
2021/09/14 11:15:28;;;;;;;4.05;2.55;;;27.80;59.00;;;;;;2350526;53;20930;-73
2021/09/14 11:17:54;;;;;;;4.30;2.65;;;27.90;59.10;;;;;;2351146;53;21077;-75
2021/09/14 11:20:21;;;;;;;4.00;2.70;;;28.00;59.10;;;;;;2350840;53;21497;-73
2021/09/14 11:22:48;;;;;;;3.95;2.37;;;28.10;59.10;;;;;;2352144;52;20945;-74
2021/09/14 11:25:19;;;;;;;3.83;2.60;;;28.20;59.10;;;;;;2563957;52;1846303;-72
2021/09/14 11:28:01;;;;;;;4.70;2.47;;;28.40;58.90;;;;;;2357253;52;20950;-74
2021/09/14 11:30:28;;;;;;;5.35;3.25;;;28.50;58.40;;;;;;2351577;53;20946;-74
2021/09/14 11:32:55;;;;;;;4.00;2.80;;;28.60;58.50;;;;;;2355480;52;20950;-73
2021/09/14 11:35:22;;;;;;;4.07;2.58;;;28.70;58.10;;;;;;2355224;53;20994;-74
2021/09/14 11:38:06;;;;;;;3.33;1.90;;;28.80;57.90;;;;;;2375804;52;22058;-74
2021/09/14 11:40:42;;;;;;;4.40;2.58;;;28.80;58.00;;;;;;2345059;53;20995;-74
2021/09/14 11:43:09;;;;;;;5.57;2.60;;;28.90;57.40;;;;;;2335844;53;22123;-73
2021/09/14 11:45:36;;;;;;;4.15;2.60;;;28.90;57.10;;;;;;2332032;53;21017;-73
2021/09/14 11:48:03;;;;;;;4.30;2.60;;;29.00;56.90;;;;;;2388460;52;20963;-75
2021/09/14 11:50:35;;;;;;;3.70;2.58;;;29.00;56.70;;;;;;2351528;53;20957;-75
2021/09/14 11:53:15;;;;;;;5.43;3.03;;;29.10;56.60;;;;;;2351483;53;21967;-74
2021/09/14 11:55:48;;;;;;;5.25;2.78;;;29.20;56.40;;;;;;2537088;52;21630;-72
2021/09/14 11:58:34;;;;;;;5.82;2.70;;;29.30;56.60;;;;;;2350743;53;20970;-73
2021/09/14 12:01:08;;;;;;;4.12;2.65;;;29.30;56.00;;;;;;2355298;52;21467;-74
2021/09/14 12:03:48;;;;;;;3.78;2.70;;;29.40;56.30;;;;;;2350767;53;21309;-74
2021/09/14 12:06:25;;;;;;;6.90;2.90;;;29.50;55.40;;;;;;2445798;52;21952;-74
2021/09/14 12:08:51;;;;;;;3.87;2.45;;;29.60;55.50;;;;;;2350922;53;21065;-74
2021/09/14 12:12:00;;;;;;;4.95;2.62;;;29.60;56.60;;;;;;2350922;53;21397;-73
2021/09/14 12:14:28;;;;;;;3.70;2.62;;;29.70;55.00;;;;;;2356681;52;20946;-74
2021/09/14 12:16:58;;;;;;;4.20;2.25;;;29.80;55.60;;;;;;2351353;53;22077;-73
2021/09/14 12:19:24;;;;;;;3.47;2.03;;;29.90;55.40;;;;;;2350704;52;21013;-74
2021/09/14 12:21:52;;;;;;;3.72;2.20;;;29.90;55.40;;;;;;2351388;53;20977;-75
2021/09/14 12:24:19;;;;;;;3.35;2.15;;;30.00;55.30;;;;;;2359709;52;21096;-75
2021/09/14 12:26:50;;;;;;;4.03;2.15;;;30.10;55.60;;;;;;2336881;53;20993;-74
2021/09/14 12:29:17;;;;;;;3.72;2.08;;;30.20;54.70;;;;;;2346083;53;20965;-74
2021/09/14 12:31:43;;;;;;;4.05;2.20;;;30.30;53.90;;;;;;2355545;52;20959;-74
2021/09/14 12:34:09;;;;;;;5.37;2.20;;;30.30;53.40;;;;;;2365479;52;21025;-74
2021/09/14 12:36:36;;;;;;;3.47;1.90;;;30.40;53.20;;;;;;2339049;53;20906;-72
2021/09/14 12:39:03;;;;;;;3.08;1.83;;;30.40;53.00;;;;;;2352740;52;20937;-74
2021/09/14 12:41:30;;;;;;;2.97;1.70;;;30.40;52.80;;;;;;2357400;52;21535;-73
2021/09/14 12:43:57;;;;;;;3.35;1.65;;;30.50;53.00;;;;;;2334717;53;20987;-73
2021/09/14 12:46:23;;;;;;;3.62;1.65;;;30.50;52.90;;;;;;2344052;53;21728;-73
2021/09/14 12:48:49;;;;;;;2.87;1.70;;;30.60;52.90;;;;;;2351213;53;20984;-74
2021/09/14 12:51:15;;;;;;;4.25;2.00;;;30.50;52.50;;;;;;2354273;52;20962;-71
2021/09/14 12:53:42;;;;;;;3.37;1.80;;;30.60;52.60;;;;;;2353396;53;20934;-71
2021/09/14 12:56:08;;;;;;;3.35;2.17;;;30.60;52.20;;;;;;2354891;52;20953;-74
2021/09/14 12:58:39;;;;;;;3.60;2.22;;;30.60;52.10;;;;;;2353335;52;21140;-73
2021/09/14 13:01:05;;;;;;;2.90;1.75;;;30.60;51.70;;;;;;2344892;53;21035;-71
2021/09/14 13:03:32;;;;;;;3.00;1.95;;;30.50;51.50;;;;;;2354625;53;21017;-72
2021/09/14 13:05:58;;;;;;;8.82;2.50;;;30.50;51.40;;;;;;2334319;53;21045;-71
2021/09/14 13:08:24;;;;;;;5.00;2.58;;;30.50;51.20;;;;;;2350363;52;20958;-74
2021/09/14 13:10:54;;;;;;;3.70;2.05;;;30.40;50.90;;;;;;2454831;52;21446;-73
2021/09/14 13:16:10;;;;;;;3.40;2.08;;;30.30;51.10;;;;;;2587764;52;20934;-74
2021/09/14 13:18:40;;;;;;;3.47;1.95;;;30.20;51.20;;;;;;2579961;52;22211;-74
2021/09/14 13:21:07;;;;;;;3.40;1.83;;;30.10;51.40;;;;;;2601386;52;21101;-74
2021/09/14 13:23:33;;;;;;;4.47;2.12;;;30.10;51.70;;;;;;2355622;52;21033;-73
2021/09/14 13:25:59;;;;;;;4.75;2.30;;;30.00;51.80;;;;;;2351904;53;20974;-73
2021/09/14 13:28:25;;;;;;;3.15;1.83;;;29.90;51.90;;;;;;2357954;52;20950;-73
2021/09/14 13:30:52;;;;;;;4.45;2.12;;;29.90;52.10;;;;;;2600826;52;20942;-75
2021/09/14 13:33:18;;;;;;;4.50;2.22;;;29.80;52.20;;;;;;2359475;52;20952;-73
2021/09/14 13:35:44;;;;;;;4.35;2.20;;;29.80;52.20;;;;;;2335200;53;21027;-76
2021/09/14 13:38:10;;;;;;;3.08;1.73;;;29.70;52.40;;;;;;2350255;53;20949;-76
2021/09/14 13:40:39;;;;;;;5.32;2.10;;;29.70;52.70;;;;;;2351839;53;20950;-71
2021/09/14 13:43:05;;;;;;;3.97;2.00;;;29.60;52.80;;;;;;2357456;53;21014;-73
2021/09/14 13:48:21;;;;;;;3.47;1.80;;;29.50;53.10;;;;;;2350735;53;21100;-73
2021/09/14 13:50:47;;;;;;;3.20;1.70;;;29.40;53.20;;;;;;2355329;52;20958;-73
2021/09/14 13:53:16;;;;;;;3.10;1.83;;;29.30;53.30;;;;;;2344062;53;20945;-74